createdAt,value
2017-09-03T00:00:21.235Z,7.22
2017-09-03T00:02:49.592Z,12.97
2017-09-03T00:05:18.165Z,7.60
2017-09-03T00:07:46.493Z,8.17
2017-09-03T00:10:14.820Z,10.60
2017-09-03T00:12:43.365Z,12.47
2017-09-03T00:15:11.748Z,11.70
2017-09-03T00:17:40.129Z,9.40
2017-09-03T00:20:08.848Z,11.37
2017-09-03T00:22:37.225Z,10.77
2017-09-03T00:25:05.544Z,10.80
2017-09-03T00:27:35.167Z,11.67
2017-09-03T00:30:03.537Z,20.57
2017-09-03T00:32:31.971Z,8.68
2017-09-03T00:35:00.533Z,10.03
2017-09-03T00:37:28.891Z,14.93
2017-09-03T00:39:57.203Z,12.75
2017-09-03T00:42:25.800Z,9.25
2017-09-03T00:44:54.202Z,11.10
2017-09-03T00:47:22.582Z,11.43
2017-09-03T00:49:52.978Z,14.95
2017-09-03T00:52:22.106Z,10.82
2017-09-03T00:54:50.453Z,13.13
2017-09-03T00:57:18.978Z,10.77
2017-09-03T00:59:47.366Z,12.15
2017-09-03T01:02:15.768Z,9.32
2017-09-03T01:04:44.327Z,11.80
2017-09-03T01:07:12.689Z,10.85
2017-09-03T01:09:41.383Z,10.13
2017-09-03T01:12:10.029Z,16.42
2017-09-03T01:14:38.410Z,9.00
2017-09-03T01:17:06.733Z,13.38
2017-09-03T01:19:35.399Z,12.82
2017-09-03T01:22:04.721Z,15.25
2017-09-03T01:24:33.102Z,10.85
2017-09-03T01:27:01.560Z,15.35
2017-09-03T01:29:29.960Z,12.75
2017-09-03T01:31:58.444Z,18.90
2017-09-03T01:34:27.238Z,16.60
2017-09-03T01:36:55.708Z,14.30
2017-09-03T01:39:24.025Z,12.13
2017-09-03T01:41:52.749Z,14.10
2017-09-03T01:44:21.095Z,18.52
2017-09-03T01:46:49.445Z,12.45
2017-09-03T01:49:18.116Z,10.77
2017-09-03T01:51:46.473Z,14.13
2017-09-03T01:54:14.842Z,17.75
2017-09-03T01:56:43.425Z,16.80
2017-09-03T01:59:11.764Z,16.73
2017-09-03T02:01:40.134Z,11.07
2017-09-03T02:04:08.725Z,14.50
2017-09-03T02:06:37.059Z,10.45
2017-09-03T02:09:05.417Z,12.15
2017-09-03T02:11:34.004Z,18.92
2017-09-03T02:14:02.349Z,20.60
2017-09-03T02:16:30.713Z,13.50
2017-09-03T02:18:59.329Z,15.88
2017-09-03T02:21:27.861Z,19.45
2017-09-03T02:23:56.391Z,23.27
2017-09-03T02:26:24.955Z,21.20
2017-09-03T02:28:53.302Z,15.50
2017-09-03T02:31:21.619Z,17.15
2017-09-03T02:33:50.125Z,13.52
2017-09-03T02:36:19.219Z,17.17
2017-09-03T02:38:47.626Z,17.15
2017-09-03T02:41:16.008Z,14.80
2017-09-03T02:43:44.355Z,12.40
2017-09-03T02:46:13.605Z,12.60
2017-09-03T02:48:42.205Z,10.32
2017-09-03T02:51:10.546Z,14.75
2017-09-03T02:53:38.950Z,17.52
2017-09-03T02:56:07.531Z,14.95
2017-09-03T02:58:35.892Z,12.90
2017-09-03T03:01:04.296Z,21.62
2017-09-03T03:03:32.817Z,15.25
2017-09-03T03:06:01.159Z,12.65
2017-09-03T03:08:29.517Z,15.07
2017-09-03T03:10:58.244Z,13.00
2017-09-03T03:13:26.622Z,14.40
2017-09-03T03:15:54.989Z,14.85
2017-09-03T03:18:23.329Z,10.77
2017-09-03T03:20:51.637Z,15.05
2017-09-03T03:23:19.985Z,12.32
2017-09-03T03:25:49.304Z,9.63
2017-09-03T03:28:17.631Z,13.43
2017-09-03T03:30:46.734Z,10.90
2017-09-03T03:33:15.240Z,14.50
2017-09-03T03:35:43.562Z,16.23
2017-09-03T03:38:11.902Z,15.40
2017-09-03T03:40:41.506Z,15.02
2017-09-03T03:43:09.819Z,15.82
2017-09-03T03:45:38.156Z,15.90
2017-09-03T03:48:06.538Z,16.37
2017-09-03T03:50:34.853Z,18.85
2017-09-03T03:53:03.207Z,13.85
2017-09-03T03:55:31.582Z,15.15
2017-09-03T03:58:00.159Z,13.45
2017-09-03T04:00:28.533Z,15.00
2017-09-03T04:02:57.096Z,11.23
2017-09-03T04:05:25.425Z,13.10
2017-09-03T04:07:53.751Z,19.80
2017-09-03T04:10:23.257Z,17.87
2017-09-03T04:12:51.587Z,11.05
2017-09-03T04:15:19.914Z,12.88
2017-09-03T04:17:49.451Z,11.45
2017-09-03T04:20:17.794Z,11.50
2017-09-03T04:22:46.175Z,16.15
2017-09-03T04:25:14.535Z,17.52
2017-09-03T04:27:42.935Z,21.75
2017-09-03T04:30:11.261Z,8.65
2017-09-03T04:32:39.644Z,12.55
2017-09-03T04:35:07.973Z,12.88
2017-09-03T04:37:36.326Z,18.00
2017-09-03T04:40:05.062Z,17.52
2017-09-03T04:42:33.465Z,15.43
2017-09-03T04:45:01.820Z,13.20
2017-09-03T04:47:30.526Z,16.85
2017-09-03T04:49:58.880Z,20.42
2017-09-03T04:52:27.415Z,18.58
2017-09-03T04:54:55.999Z,25.67
2017-09-03T04:57:25.404Z,16.50
2017-09-03T04:59:53.946Z,17.75
2017-09-03T05:02:22.521Z,15.70
2017-09-03T05:04:50.865Z,15.13
2017-09-03T05:07:19.186Z,15.48
2017-09-03T05:09:48.225Z,23.70
2017-09-03T05:12:16.550Z,26.02
2017-09-03T05:14:44.880Z,25.35
2017-09-03T05:17:14.211Z,13.98
2017-09-03T05:19:42.602Z,18.05
2017-09-03T05:22:10.968Z,16.42
2017-09-03T05:24:39.585Z,17.27
2017-09-03T05:27:07.994Z,21.27
2017-09-03T05:29:36.361Z,23.17
2017-09-03T05:32:05.060Z,18.80
2017-09-03T05:34:33.377Z,22.95
2017-09-03T05:37:01.779Z,14.85
2017-09-03T05:39:30.194Z,19.25
2017-09-03T05:41:58.712Z,17.80
2017-09-03T05:44:27.228Z,12.82
2017-09-03T05:46:55.984Z,16.87
2017-09-03T05:49:24.362Z,19.23
2017-09-03T05:51:52.692Z,17.48
2017-09-03T05:54:21.249Z,17.25
2017-09-03T05:56:49.584Z,11.77
2017-09-03T05:59:17.931Z,18.42
2017-09-03T06:01:46.563Z,23.58
2017-09-03T06:04:14.897Z,15.25
2017-09-03T06:06:43.222Z,24.65
2017-09-03T06:09:11.808Z,17.83
2017-09-03T06:11:40.281Z,20.55
2017-09-03T06:14:08.625Z,17.27
2017-09-03T06:16:37.016Z,11.07
2017-09-03T06:19:05.352Z,11.93
2017-09-03T06:21:33.719Z,20.20
2017-09-03T06:24:02.426Z,12.57
2017-09-03T06:26:31.764Z,12.43
2017-09-03T06:29:00.166Z,11.07
2017-09-03T06:31:28.750Z,17.63
2017-09-03T06:33:57.106Z,16.53
2017-09-03T06:36:25.454Z,10.43
2017-09-03T06:38:54.250Z,13.40
2017-09-03T06:41:22.600Z,15.03
2017-09-03T06:43:50.923Z,17.17
2017-09-03T06:46:19.340Z,18.17
2017-09-03T06:48:47.687Z,13.33
2017-09-03T06:51:16.070Z,10.20
2017-09-03T06:53:44.487Z,14.10
2017-09-03T06:56:13.773Z,9.97
2017-09-03T06:58:42.093Z,16.40
2017-09-03T07:01:10.759Z,14.97
2017-09-03T07:03:39.091Z,10.83
2017-09-03T07:06:07.622Z,11.17
2017-09-03T07:08:37.049Z,13.00
2017-09-03T07:11:05.403Z,12.30
2017-09-03T07:13:33.761Z,7.73
2017-09-03T07:16:02.497Z,11.17
2017-09-03T07:18:30.974Z,10.83
2017-09-03T07:20:59.543Z,7.47
2017-09-03T07:23:28.936Z,9.83
2017-09-03T07:25:57.366Z,7.77
2017-09-03T07:28:25.810Z,10.30
2017-09-03T07:30:54.296Z,10.10
2017-09-03T07:33:22.637Z,15.53
2017-09-03T07:35:50.971Z,9.57
2017-09-03T07:38:19.639Z,6.70
2017-09-03T07:40:48.036Z,7.10
2017-09-03T07:43:16.362Z,8.90
2017-09-03T07:45:44.930Z,8.63
2017-09-03T07:48:13.274Z,4.03
2017-09-03T07:50:41.603Z,6.53
2017-09-03T07:53:10.122Z,14.80
2017-09-03T07:55:38.450Z,20.77
2017-09-03T07:58:06.789Z,4.50
2017-09-03T08:00:35.321Z,6.23
2017-09-03T08:03:03.692Z,4.33
2017-09-03T08:05:32.040Z,7.40
2017-09-03T08:08:00.656Z,6.27
2017-09-03T08:10:29.169Z,6.93
2017-09-03T08:12:57.568Z,6.83
2017-09-03T08:15:26.675Z,3.77
2017-09-03T08:17:55.049Z,5.50
2017-09-03T08:20:23.367Z,10.50
2017-09-03T08:22:52.771Z,9.13
2017-09-03T08:25:21.085Z,10.43
2017-09-03T08:27:49.476Z,6.60
2017-09-03T08:30:18.160Z,6.13
2017-09-03T08:32:46.490Z,13.33
2017-09-03T08:35:14.921Z,14.03
2017-09-03T08:37:44.628Z,17.13
2017-09-03T08:40:12.994Z,5.70
2017-09-03T08:42:41.831Z,7.27
2017-09-03T08:45:10.579Z,8.90
2017-09-03T08:47:40.845Z,8.43
2017-09-03T08:50:10.061Z,7.13
2017-09-03T08:52:38.780Z,5.23
2017-09-03T08:55:07.122Z,6.10
2017-09-03T08:57:35.438Z,9.00
2017-09-03T09:00:04.073Z,3.03
2017-09-03T09:02:32.599Z,5.17
2017-09-03T09:05:01.059Z,5.93
2017-09-03T09:07:29.917Z,2.33
2017-09-03T09:09:58.499Z,6.67
2017-09-03T09:12:26.977Z,9.57
2017-09-03T09:14:55.667Z,4.90
2017-09-03T09:17:24.011Z,7.50
2017-09-03T09:19:52.381Z,6.20
2017-09-03T09:22:23.757Z,6.10
2017-09-03T09:24:53.013Z,3.50
2017-09-03T09:27:21.382Z,2.97
2017-09-03T09:29:50.104Z,2.40
2017-09-03T09:32:18.445Z,4.10
2017-09-03T09:34:46.784Z,4.77
2017-09-03T09:37:15.320Z,6.50
2017-09-03T09:39:44.274Z,10.37
2017-09-03T09:42:12.772Z,11.23
2017-09-03T09:44:41.207Z,6.80
2017-09-03T09:47:10.297Z,4.77
2017-09-03T09:49:38.905Z,6.63
2017-09-03T09:52:07.537Z,9.03
2017-09-03T09:54:36.297Z,11.10
2017-09-03T09:57:04.784Z,3.47
2017-09-03T09:59:33.455Z,4.17
2017-09-03T10:02:01.932Z,6.60
2017-09-03T10:04:30.316Z,5.80
2017-09-03T10:06:59.007Z,7.30
2017-09-03T10:09:27.903Z,9.53
2017-09-03T10:11:56.735Z,3.37
2017-09-03T10:14:25.650Z,4.73
2017-09-03T10:16:55.467Z,7.50
2017-09-03T10:19:23.940Z,2.90
2017-09-03T10:21:52.625Z,3.63
2017-09-03T10:24:21.622Z,6.80
2017-09-03T10:26:49.996Z,3.83
2017-09-03T10:29:18.467Z,2.80
2017-09-03T10:31:46.856Z,3.20
2017-09-03T10:34:15.179Z,15.47
2017-09-03T10:36:43.736Z,3.87
2017-09-03T10:39:12.209Z,6.10
2017-09-03T10:41:41.073Z,1.60
2017-09-03T10:44:09.629Z,9.83
2017-09-03T10:46:37.989Z,7.90
2017-09-03T10:49:06.367Z,8.53
2017-09-03T10:51:35.573Z,11.87
2017-09-03T10:54:04.050Z,5.33
2017-09-03T10:56:32.458Z,4.17
2017-09-03T10:59:01.335Z,6.40
2017-09-03T11:01:29.722Z,3.47
2017-09-03T11:03:58.106Z,5.20
2017-09-03T11:06:26.755Z,5.00
2017-09-03T11:08:55.097Z,1.63
2017-09-03T11:11:23.517Z,6.00
2017-09-03T11:13:52.057Z,5.13
2017-09-03T11:16:20.367Z,5.53
2017-09-03T11:18:48.678Z,9.13
2017-09-03T11:21:17.034Z,3.67
2017-09-03T11:23:45.373Z,4.93
2017-09-03T11:26:13.748Z,4.97
2017-09-03T11:28:42.287Z,3.43
2017-09-03T11:31:10.912Z,4.13
2017-09-03T11:33:40.416Z,5.83
2017-09-03T11:36:09.077Z,2.10
2017-09-03T11:38:38.777Z,4.50
2017-09-03T11:41:07.524Z,9.60
2017-09-03T11:43:35.912Z,4.10
2017-09-03T11:46:04.257Z,6.00
2017-09-03T11:48:32.607Z,5.70
2017-09-03T11:51:01.278Z,6.23
2017-09-03T11:55:47.591Z,5.73
2017-09-03T11:58:16.205Z,12.27
2017-09-03T12:00:44.525Z,9.50
2017-09-03T12:03:12.841Z,7.85
2017-09-03T12:05:41.597Z,8.30
2017-09-03T12:13:08.421Z,8.30
2017-09-03T12:20:39.587Z,2.90
2017-09-03T12:23:08.693Z,4.60
2017-09-03T12:25:37.857Z,5.57
2017-09-03T12:28:08.366Z,3.60
2017-09-03T12:30:37.666Z,5.23
2017-09-03T12:33:06.811Z,4.50
2017-09-03T12:35:36.158Z,2.00
2017-09-03T12:38:05.266Z,6.13
2017-09-03T12:40:34.460Z,3.07
2017-09-03T12:43:03.660Z,2.20
2017-09-03T12:45:33.041Z,11.10
2017-09-03T12:48:02.290Z,6.03
2017-09-03T12:50:31.745Z,4.10
2017-09-03T12:53:01.566Z,3.63
2017-09-03T12:55:30.754Z,3.17
2017-09-03T12:58:00.275Z,7.93
2017-09-03T13:00:29.467Z,4.47
2017-09-03T13:02:58.651Z,8.90
2017-09-03T13:05:28.483Z,1.97
2017-09-03T13:07:59.682Z,2.53
2017-09-03T13:10:28.915Z,3.10
2017-09-03T13:13:00.194Z,7.00
2017-09-03T13:15:29.395Z,4.50
2017-09-03T13:17:59.414Z,14.07
2017-09-03T13:20:29.065Z,2.93
2017-09-03T13:22:59.797Z,2.00
2017-09-03T13:25:29.407Z,3.03
2017-09-03T13:27:59.746Z,2.83
2017-09-03T13:30:28.927Z,11.90
2017-09-03T13:32:58.231Z,3.33
2017-09-03T13:35:28.103Z,4.40
2017-09-03T13:37:57.841Z,3.23
2017-09-03T13:40:27.346Z,3.43
2017-09-03T13:42:57.440Z,4.50
2017-09-03T13:45:26.676Z,3.30
2017-09-03T13:47:56.163Z,1.87
2017-09-03T13:50:25.330Z,4.70
2017-09-03T13:52:54.532Z,2.80
2017-09-03T13:55:23.906Z,6.33
2017-09-03T13:57:53.161Z,4.83
2017-09-03T14:00:22.247Z,3.00
2017-09-03T14:02:51.544Z,4.17
2017-09-03T14:05:20.637Z,2.00
2017-09-03T14:07:49.821Z,7.03
2017-09-03T14:10:19.167Z,3.27
2017-09-03T14:12:48.290Z,8.93
2017-09-03T14:15:17.411Z,4.47
2017-09-03T14:17:46.849Z,3.13
2017-09-03T14:20:15.921Z,5.90
2017-09-03T14:22:45.046Z,4.73
2017-09-03T14:25:14.607Z,5.90
2017-09-03T14:27:43.702Z,5.70
2017-09-03T14:30:12.850Z,3.57
2017-09-03T14:32:42.305Z,8.23
2017-09-03T14:35:11.424Z,7.23
2017-09-03T14:37:40.656Z,7.10
2017-09-03T14:40:09.939Z,4.30
2017-09-03T14:42:39.102Z,5.13
2017-09-03T14:45:08.191Z,3.87
2017-09-03T14:47:37.625Z,6.77
2017-09-03T14:50:06.772Z,3.77
2017-09-03T14:52:35.994Z,6.40
2017-09-03T14:55:07.702Z,1.73
2017-09-03T14:57:37.571Z,5.17
2017-09-03T15:00:07.511Z,11.90
2017-09-03T15:02:36.906Z,2.23
2017-09-03T15:05:06.948Z,5.67
2017-09-03T15:07:36.175Z,8.53
2017-09-03T15:10:06.459Z,8.43
2017-09-03T15:12:35.611Z,5.87
2017-09-03T15:15:04.727Z,13.17
2017-09-03T15:17:34.062Z,1.50
2017-09-03T15:20:03.233Z,8.33
2017-09-03T15:22:32.456Z,5.57
2017-09-03T15:25:02.052Z,3.53
2017-09-03T15:27:31.203Z,2.87
2017-09-03T15:30:00.353Z,15.13
2017-09-03T15:32:29.620Z,4.63
2017-09-03T15:34:58.849Z,1.97
2017-09-03T15:37:28.008Z,2.47
2017-09-03T15:39:58.281Z,4.00
2017-09-03T15:42:27.635Z,3.80
2017-09-03T15:44:56.731Z,1.70
2017-09-03T15:47:26.101Z,8.97
2017-09-03T15:49:55.240Z,4.73
2017-09-03T15:52:25.790Z,5.30
2017-09-03T15:54:55.598Z,6.17
2017-09-03T15:57:24.726Z,4.40
2017-09-03T15:59:53.968Z,3.40
2017-09-03T16:02:23.257Z,1.27
2017-09-03T16:04:52.361Z,9.10
2017-09-03T16:07:21.518Z,3.90
2017-09-03T16:09:51.894Z,4.60
2017-09-03T16:12:21.991Z,1.73
2017-09-03T16:14:51.117Z,3.90
2017-09-03T16:17:21.334Z,3.13
2017-09-03T16:19:51.506Z,1.00
2017-09-03T16:22:20.636Z,7.90
2017-09-03T16:24:50.075Z,8.67
2017-09-03T16:27:19.245Z,2.67
2017-09-03T16:29:48.343Z,1.63
2017-09-03T16:32:17.845Z,2.30
2017-09-03T16:34:46.954Z,1.67
2017-09-03T16:37:16.108Z,2.80
2017-09-03T16:39:46.278Z,3.10
2017-09-03T16:42:16.370Z,2.63
2017-09-03T16:44:45.575Z,1.13
2017-09-03T16:47:14.741Z,3.97
2017-09-03T16:49:43.872Z,2.20
2017-09-03T16:52:13.072Z,2.87
2017-09-03T16:54:42.368Z,1.83
2017-09-03T16:57:11.479Z,16.43
2017-09-03T16:59:40.625Z,5.07
2017-09-03T17:02:09.866Z,1.47
2017-09-03T17:04:39.054Z,2.90
2017-09-03T17:07:09.110Z,5.70
2017-09-03T17:09:38.497Z,5.30
2017-09-03T17:12:07.695Z,2.53
2017-09-03T17:14:36.870Z,3.53
2017-09-03T17:17:06.200Z,5.53
2017-09-03T17:19:35.366Z,3.93
2017-09-03T17:22:04.777Z,4.23
2017-09-03T17:24:34.074Z,5.40
2017-09-03T17:27:05.233Z,3.50
2017-09-03T17:29:36.388Z,2.87
2017-09-03T17:32:06.205Z,3.93
2017-09-03T17:34:45.647Z,5.30
2017-09-03T17:37:21.262Z,7.30
2017-09-03T17:39:52.362Z,6.83
2017-09-03T17:42:24.281Z,5.30
2017-09-03T17:44:53.913Z,11.90
2017-09-03T17:47:23.082Z,9.87
2017-09-03T17:49:52.249Z,6.70
2017-09-03T17:52:21.699Z,11.13
2017-09-03T17:54:50.894Z,2.90
2017-09-03T17:57:20.061Z,4.13
2017-09-03T17:59:49.527Z,8.40
2017-09-03T18:02:18.671Z,4.63
2017-09-03T18:04:47.796Z,6.87
2017-09-03T18:07:16.961Z,8.03
2017-09-03T18:09:46.154Z,7.07
2017-09-03T18:12:15.579Z,6.40
2017-09-03T18:14:44.859Z,7.43
2017-09-03T18:17:15.080Z,10.17
2017-09-03T18:19:44.622Z,11.87
2017-09-03T18:22:15.756Z,4.57
2017-09-03T18:24:44.893Z,7.73
2017-09-03T18:27:14.028Z,10.67
2017-09-03T18:32:52.646Z,12.50
2017-09-03T18:35:21.954Z,10.73
2017-09-03T18:38:05.954Z,4.53
2017-09-03T18:40:47.074Z,4.70
2017-09-03T18:43:18.619Z,6.33
2017-09-03T18:45:58.755Z,11.80
2017-09-03T18:48:28.019Z,8.97
2017-09-03T18:51:03.884Z,6.40
2017-09-03T18:53:37.100Z,8.13
2017-09-03T18:56:06.861Z,3.33
2017-09-03T18:58:45.891Z,6.90
2017-09-03T19:01:15.090Z,9.50
2017-09-03T19:03:44.265Z,10.13
2017-09-03T19:06:15.003Z,7.80
2017-09-03T19:08:44.828Z,4.20
2017-09-03T19:11:14.775Z,4.13
2017-09-03T19:13:43.939Z,7.73
2017-09-03T19:16:13.256Z,7.80
2017-09-03T19:18:43.310Z,9.37
2017-09-03T19:21:12.564Z,12.60
2017-09-03T19:23:42.038Z,13.73
2017-09-03T19:26:11.177Z,14.63
2017-09-03T19:28:40.365Z,6.40
2017-09-03T19:31:09.706Z,11.17
2017-09-03T19:33:40.001Z,6.10
2017-09-03T19:36:09.124Z,7.37
2017-09-03T19:38:45.704Z,17.13
2017-09-03T19:41:14.885Z,10.87
2017-09-03T19:43:44.004Z,11.50
2017-09-03T19:46:13.157Z,9.20
2017-09-03T19:48:42.381Z,12.17
2017-09-03T19:51:11.486Z,13.13
2017-09-03T19:53:40.678Z,17.33
2017-09-03T19:56:09.966Z,11.53
2017-09-03T19:58:39.062Z,14.60
2017-09-03T20:01:08.509Z,13.33
2017-09-03T20:03:37.618Z,12.40
2017-09-03T20:06:07.170Z,13.27
2017-09-03T20:08:36.719Z,10.87
2017-09-03T20:11:05.873Z,8.47
2017-09-03T20:13:35.021Z,9.87
2017-09-03T20:16:04.510Z,11.37
2017-09-03T20:18:33.677Z,13.57
2017-09-03T20:21:02.943Z,12.70
2017-09-03T20:23:32.221Z,10.63
2017-09-03T20:26:01.513Z,15.80
2017-09-03T20:28:30.880Z,10.53
2017-09-03T20:31:00.183Z,10.10
2017-09-03T20:33:29.665Z,8.73
2017-09-03T20:35:58.961Z,11.63
2017-09-03T20:38:28.321Z,10.53
2017-09-03T20:40:57.602Z,11.87
2017-09-03T20:43:26.784Z,12.17
2017-09-03T20:45:56.266Z,7.60
2017-09-03T20:48:25.957Z,10.67
2017-09-03T20:50:55.243Z,11.27
2017-09-03T20:53:24.708Z,8.47
2017-09-03T20:55:53.894Z,20.23
2017-09-03T20:58:23.213Z,9.77
2017-09-03T21:00:52.534Z,9.80
2017-09-03T21:03:21.701Z,9.17
2017-09-03T21:05:50.854Z,16.83
2017-09-03T21:08:20.337Z,16.67
2017-09-03T21:10:49.534Z,9.07
2017-09-03T21:13:18.730Z,13.20
2017-09-03T21:15:48.148Z,9.97
2017-09-03T21:18:17.274Z,9.70
2017-09-03T21:20:46.410Z,15.80
2017-09-03T21:23:15.837Z,17.27
2017-09-03T21:25:44.946Z,10.97
2017-09-03T21:28:14.121Z,14.73
2017-09-03T21:30:43.432Z,11.00
2017-09-03T21:33:12.748Z,11.30
2017-09-03T21:35:41.940Z,12.43
2017-09-03T21:38:11.397Z,20.03
2017-09-03T21:40:41.088Z,15.47
2017-09-03T21:43:10.284Z,11.50
2017-09-03T21:45:39.437Z,13.10
2017-09-03T21:48:08.613Z,10.37
2017-09-03T21:50:38.771Z,14.63
2017-09-03T21:53:08.002Z,9.37
2017-09-03T21:55:37.179Z,8.80
2017-09-03T21:58:06.443Z,9.17
2017-09-03T22:00:35.752Z,11.90
2017-09-03T22:03:04.977Z,15.23
2017-09-03T22:05:34.178Z,15.60
2017-09-03T22:08:03.364Z,14.03
2017-09-03T22:10:32.517Z,10.50
2017-09-03T22:13:01.728Z,10.70
2017-09-03T22:15:31.129Z,13.83
2017-09-03T22:18:00.401Z,10.93
2017-09-03T22:20:29.524Z,11.63
2017-09-03T22:22:58.892Z,10.97
2017-09-03T22:25:28.092Z,8.77
2017-09-03T22:27:57.422Z,14.73
2017-09-03T22:30:26.825Z,8.53
2017-09-03T22:32:56.936Z,9.97
2017-09-03T22:35:26.162Z,10.07
2017-09-03T22:37:55.797Z,9.03
2017-09-03T22:40:24.920Z,13.93
2017-09-03T22:42:54.078Z,14.73
2017-09-03T22:45:24.583Z,10.30
2017-09-03T22:47:53.897Z,11.83
2017-09-03T22:50:23.039Z,13.23
2017-09-03T22:52:52.955Z,9.43
2017-09-03T22:55:22.046Z,12.97
2017-09-03T22:57:51.991Z,15.63
2017-09-03T23:00:21.526Z,10.30
2017-09-03T23:02:50.818Z,21.80
2017-09-03T23:05:19.992Z,10.82
2017-09-03T23:07:49.507Z,13.23
2017-09-03T23:10:18.645Z,10.38
2017-09-03T23:12:47.817Z,13.93
2017-09-03T23:15:17.002Z,15.18
2017-09-03T23:17:46.106Z,9.98
2017-09-03T23:20:15.226Z,10.05
2017-09-03T23:22:44.681Z,12.25
2017-09-03T23:25:13.798Z,12.10
2017-09-03T23:27:43.693Z,12.83
2017-09-03T23:30:12.971Z,12.40
2017-09-03T23:32:42.109Z,6.37
2017-09-03T23:35:12.100Z,7.50
2017-09-03T23:37:41.261Z,9.50
2017-09-03T23:40:10.398Z,9.60
2017-09-03T23:42:39.565Z,10.70
2017-09-03T23:45:08.806Z,11.57
2017-09-03T23:47:37.944Z,7.32
2017-09-03T23:50:07.193Z,11.30
2017-09-03T23:52:36.566Z,11.93
2017-09-03T23:55:05.690Z,10.45
2017-09-03T23:57:34.905Z,7.50
